Time;durP1;ratioP1;P1;durP2;ratioP2;P2;SDS_P1;SDS_P2;PMS_P1;PMS_P2;Temp;Humidity;BMP_temperature;BMP_pressure;BME280_temperature;BME280_humidity;BME280_pressure;Samples;Min_cycle;Max_cycle;Signal;HPM_P1;HPM_P2
2023/03/02 00:04:44;;;;;;;39.5;24.3;;;;;;;-4;80.4;99600;;;;
2023/03/02 00:15:42;;;;;;;47;28.2;;;;;;;-4.1;82.1;99600;;;;
2023/03/02 00:26:43;;;;;;;47;28.2;;;;;;;-4.1;82;99610;;;;
2023/03/02 00:37:42;;;;;;;47;28.2;;;;;;;-4.1;81.9;99610;;;;
2023/03/02 00:47:42;;;;;;;43.4;26.7;;;;;;;-4.1;82.4;99600;;;;
2023/03/02 00:57:42;;;;;;;43.4;26.7;;;;;;;-4.1;82.4;99590;;;;
2023/03/02 01:08:42;;;;;;;43.4;26.7;;;;;;;-4.1;82.1;99580;;;;
2023/03/02 01:19:42;;;;;;;45.8;25.8;;;;;;;-4.1;82;99570;;;;
2023/03/02 01:29:42;;;;;;;45.8;25.8;;;;;;;-4.1;82.1;99570;;;;
2023/03/02 01:39:42;;;;;;;45.8;25.8;;;;;;;-4.2;81.6;99570;;;;
2023/03/02 01:49:42;;;;;;;36.1;19.8;;;;;;;-4.4;81.4;99560;;;;
2023/03/02 02:00:43;;;;;;;36.1;19.8;;;;;;;-4.5;81.2;99540;;;;
2023/03/02 02:11:43;;;;;;;36.1;19.8;;;;;;;-4.6;81.1;99530;;;;
2023/03/02 02:21:42;;;;;;;33.6;19.7;;;;;;;-4.6;81.3;99520;;;;
2023/03/02 02:31:42;;;;;;;33.6;19.7;;;;;;;-4.6;81.8;99520;;;;
2023/03/02 02:42:42;;;;;;;40.9;22.3;;;;;;;-4.6;82;99510;;;;
2023/03/02 02:52:43;;;;;;;40.9;22.3;;;;;;;-4.7;82.1;99510;;;;
2023/03/02 03:02:43;;;;;;;40.9;22.3;;;;;;;-4.7;82.1;99500;;;;
2023/03/02 03:13:43;;;;;;;27.3;19.6;;;;;;;-4.8;82.5;99490;;;;
2023/03/02 03:24:43;;;;;;;27.3;19.6;;;;;;;-4.8;82.4;99480;;;;
2023/03/02 03:34:43;;;;;;;27.3;19.6;;;;;;;-4.8;82.5;99470;;;;
2023/03/02 03:45:43;;;;;;;32.5;20.1;;;;;;;-4.9;82.5;99460;;;;
2023/03/02 03:56:43;;;;;;;32.5;20.1;;;;;;;-4.9;82.4;99460;;;;
2023/03/02 04:07:43;;;;;;;32.5;20.1;;;;;;;-5.1;82.3;99460;;;;
2023/03/02 04:17:43;;;;;;;54.3;32;;;;;;;-5;82.9;99450;;;;
2023/03/02 04:27:43;;;;;;;54.3;32;;;;;;;-5;83.4;99460;;;;
2023/03/02 04:38:43;;;;;;;54.3;32;;;;;;;-4.9;83.3;99450;;;;
2023/03/02 04:49:43;;;;;;;47.7;29.6;;;;;;;-5.1;83.4;99450;;;;
2023/03/02 04:59:43;;;;;;;47.7;29.6;;;;;;;-5.1;83.3;99440;;;;
2023/03/02 05:10:43;;;;;;;47.7;29.6;;;;;;;-5;83.4;99450;;;;
2023/03/02 05:20:43;;;;;;;40.3;27.4;;;;;;;-4.9;84.4;99450;;;;
2023/03/02 05:30:43;;;;;;;40.3;27.4;;;;;;;-4.9;84.4;99460;;;;
2023/03/02 05:40:43;;;;;;;40.3;27.4;;;;;;;-4.8;84.2;99460;;;;
2023/03/02 05:51:43;;;;;;;48;31.6;;;;;;;-4.8;84.5;99460;;;;
2023/03/02 06:02:43;;;;;;;48;31.6;;;;;;;-4.6;84.5;99470;;;;
2023/03/02 06:12:43;;;;;;;42.5;23.7;;;;;;;-4.3;84.6;99480;;;;
2023/03/02 06:23:43;;;;;;;42.5;23.7;;;;;;;-4.1;84.3;99480;;;;
2023/03/02 06:34:43;;;;;;;42.5;23.7;;;;;;;-3.8;84.4;99480;;;;
2023/03/02 06:45:43;;;;;;;47.1;26.7;;;;;;;-3.3;84.3;99480;;;;
2023/03/02 06:56:43;;;;;;;47.1;26.7;;;;;;;-2.9;84.4;99490;;;;
2023/03/02 07:06:43;;;;;;;47.1;26.7;;;;;;;-2.6;83.9;99490;;;;
2023/03/02 07:17:43;;;;;;;60.8;32.9;;;;;;;-2.1;83.4;99500;;;;
2023/03/02 07:28:43;;;;;;;60.8;32.9;;;;;;;-1.7;82.7;99490;;;;
2023/03/02 07:39:43;;;;;;;60.8;32.9;;;;;;;-1.2;82.3;99490;;;;
2023/03/02 07:50:43;;;;;;;80.9;44.1;;;;;;;-0.8;81.7;99480;;;;
2023/03/02 08:00:43;;;;;;;80.9;44.1;;;;;;;-0.1;81.1;99480;;;;
2023/03/02 08:11:43;;;;;;;63.5;38.9;;;;;;;0.5;80.2;99480;;;;
2023/03/02 08:22:43;;;;;;;63.5;38.9;;;;;;;1.1;78.7;99480;;;;
2023/03/02 08:32:43;;;;;;;63.5;38.9;;;;;;;1.6;76.9;99470;;;;
2023/03/02 08:42:43;;;;;;;68.7;37.4;;;;;;;2.2;75;99460;;;;
2023/03/02 08:53:43;;;;;;;68.7;37.4;;;;;;;2.9;72.8;99450;;;;
2023/03/02 09:03:43;;;;;;;68.7;37.4;;;;;;;3.4;69.8;99450;;;;
2023/03/02 09:13:43;;;;;;;57.6;34;;;;;;;3.8;67.4;99440;;;;
2023/03/02 09:23:43;;;;;;;57.6;34;;;;;;;4.5;64.7;99430;;;;
2023/03/02 09:34:43;;;;;;;57.6;34;;;;;;;4.9;61.9;99420;;;;
2023/03/02 09:44:43;;;;;;;;;;;;;;;5.4;;;;;;
2023/03/02 09:54:43;;;;;;;47.5;33.6;;;;;;;5.7;58.8;99410;;;;
2023/03/02 10:05:43;;;;;;;47.5;33.6;;;;;;;6.1;56.7;99390;;;;
2023/03/02 10:16:44;;;;;;;49.5;34.5;;;;;;;6.5;55.5;99380;;;;
2023/03/02 10:27:43;;;;;;;49.5;34.5;;;;;;;6.8;55.5;99380;;;;
2023/03/02 10:37:43;;;;;;;49.5;34.5;;;;;;;6.9;54.1;99370;;;;
2023/03/02 10:48:45;;;;;;;40.7;30.5;;;;;;;7.3;53.1;99350;;;;
2023/03/02 10:58:43;;;;;;;40.7;30.5;;;;;;;7.6;52.8;99340;;;;
2023/03/02 11:08:43;;;;;;;40.7;30.5;;;;;;;7.7;51.5;99320;;;;
2023/03/02 11:19:43;;;;;;;39.2;30.7;;;;;;;7.8;50.5;99310;;;;
2023/03/02 11:30:43;;;;;;;39.2;30.7;;;;;;;8.1;49.8;99290;;;;
2023/03/02 11:41:43;;;;;;;36.5;27.3;;;;;;;8.3;49.8;99280;;;;
2023/03/02 11:51:43;;;;;;;36.5;27.3;;;;;;;8.3;48.3;99260;;;;
2023/03/02 12:01:43;;;;;;;36.5;27.3;;;;;;;8.5;47.4;99260;;;;
2023/03/02 12:12:43;;;;;;;29.6;23.1;;;;;;;8.4;46.8;99250;;;;
2023/03/02 12:22:43;;;;;;;29.6;23.1;;;;;;;8.4;46.7;99240;;;;
2023/03/02 12:32:43;;;;;;;29.6;23.1;;;;;;;8.6;46.8;99240;;;;
2023/03/02 12:42:43;;;;;;;26.6;22;;;;;;;8.7;46.9;99230;;;;
2023/03/02 12:53:43;;;;;;;26.6;22;;;;;;;8.6;46.5;99220;;;;
2023/03/02 13:04:43;;;;;;;26.6;22;;;;;;;8.8;46.6;99200;;;;
2023/03/02 13:14:43;;;;;;;25.2;19.4;;;;;;;8.9;46.5;99190;;;;
2023/03/02 13:25:44;;;;;;;25.2;19.4;;;;;;;8.4;46.3;99160;;;;
2023/03/02 13:35:43;;;;;;;25.2;19.4;;;;;;;8.7;46;99160;;;;
2023/03/02 13:46:43;;;;;;;22.6;18.1;;;;;;;8.8;45.9;99150;;;;
2023/03/02 13:56:43;;;;;;;22.6;18.1;;;;;;;8.7;46.4;99130;;;;
2023/03/02 14:07:43;;;;;;;22.6;18.1;;;;;;;8.6;46.3;99120;;;;
2023/03/02 14:18:43;;;;;;;19.8;15.1;;;;;;;8.7;46.3;99120;;;;
2023/03/02 14:29:43;;;;;;;19.8;15.1;;;;;;;8.6;45.9;99110;;;;
2023/03/02 14:40:43;;;;;;;20.6;15;;;;;;;8.5;46.8;99110;;;;
2023/03/02 14:50:45;;;;;;;20.6;15;;;;;;;8.4;46.9;99110;;;;
2023/03/02 15:00:43;;;;;;;20.6;15;;;;;;;8.3;47.8;99100;;;;
2023/03/02 15:10:45;;;;;;;23.6;16.6;;;;;;;8;49.5;99100;;;;
2023/03/02 15:21:45;;;;;;;23.6;16.6;;;;;;;7.7;50.2;99090;;;;
2023/03/02 15:31:43;;;;;;;23.6;16.6;;;;;;;7.3;51.6;99090;;;;
2023/03/02 15:41:43;;;;;;;26.5;21.8;;;;;;;6.9;52.8;99100;;;;
2023/03/02 15:51:43;;;;;;;26.5;21.8;;;;;;;6.4;55.3;99090;;;;
2023/03/02 16:01:43;;;;;;;26.5;21.8;;;;;;;6.1;56.3;99090;;;;
2023/03/02 16:12:43;;;;;;;34.9;27.9;;;;;;;5.6;57.6;99100;;;;
2023/03/02 16:22:43;;;;;;;34.9;27.9;;;;;;;5.2;60.2;99100;;;;
2023/03/02 16:33:43;;;;;;;34.9;27.9;;;;;;;4.7;62.5;99100;;;;
2023/03/02 16:43:43;;;;;;;28.5;18;;;;;;;4.4;63.9;99110;;;;
2023/03/02 16:53:43;;;;;;;28.5;18;;;;;;;4;65.6;99120;;;;
2023/03/02 17:04:43;;;;;;;28.5;18;;;;;;;3.7;66.5;99130;;;;
2023/03/02 17:14:43;;;;;;;29.8;19.9;;;;;;;3.3;67.1;99140;;;;
2023/03/02 17:24:43;;;;;;;29.8;19.9;;;;;;;2.9;68.4;99140;;;;
2023/03/02 17:35:44;;;;;;;29.8;19.9;;;;;;;2.5;68.5;99140;;;;
2023/03/02 17:46:44;;;;;;;62.7;33.1;;;;;;;2.3;70.8;99140;;;;
2023/03/02 17:57:43;;;;;;;62.7;33.1;;;;;;;2.1;71.1;99130;;;;
2023/03/02 18:07:43;;;;;;;62.7;33.1;;;;;;;2;71.8;99130;;;;
2023/03/02 18:17:43;;;;;;;68.6;32.2;;;;;;;1.9;72.5;99130;;;;
2023/03/02 18:28:43;;;;;;;68.6;32.2;;;;;;;1.8;72.6;99130;;;;
2023/03/02 18:38:43;;;;;;;68.6;32.2;;;;;;;1.7;73.5;99130;;;;
2023/03/02 18:49:43;;;;;;;53.8;26.6;;;;;;;1.7;74;99130;;;;
2023/03/02 18:59:43;;;;;;;53.8;26.6;;;;;;;1.3;74.5;99140;;;;
2023/03/02 19:10:43;;;;;;;42.6;25.8;;;;;;;1.1;74.7;99140;;;;
2023/03/02 19:21:43;;;;;;;42.6;25.8;;;;;;;1.1;75;99150;;;;
2023/03/02 19:31:43;;;;;;;42.6;25.8;;;;;;;0.9;74.9;99140;;;;
2023/03/02 19:41:43;;;;;;;33.9;21;;;;;;;0.8;75.4;99140;;;;
2023/03/02 19:52:43;;;;;;;33.9;21;;;;;;;0.8;77.6;99150;;;;
2023/03/02 20:02:43;;;;;;;33.9;21;;;;;;;0.8;80;99150;;;;
2023/03/02 20:13:43;;;;;;;50.1;28.4;;;;;;;0.7;80.1;99140;;;;
2023/03/02 20:24:43;;;;;;;50.1;28.4;;;;;;;0.7;81;99140;;;;
2023/03/02 20:35:43;;;;;;;50.1;28.4;;;;;;;0.6;81.1;99130;;;;
2023/03/02 20:45:43;;;;;;;55.5;26.6;;;;;;;0.4;81.2;99130;;;;
2023/03/02 20:56:43;;;;;;;55.5;26.6;;;;;;;0.2;80.6;99130;;;;
2023/03/02 21:06:45;;;;;;;55.5;26.6;;;;;;;0;81.2;99120;;;;
2023/03/02 21:17:43;;;;;;;45.7;26;;;;;;;-0.2;81.6;99120;;;;
2023/03/02 21:28:43;;;;;;;45.7;26;;;;;;;-0.3;81.7;99110;;;;
2023/03/02 21:39:43;;;;;;;36.9;20.2;;;;;;;-0.4;81.9;99100;;;;
2023/03/02 21:49:43;;;;;;;36.9;20.2;;;;;;;-0.6;82;99100;;;;
2023/03/02 21:59:43;;;;;;;36.9;20.2;;;;;;;-0.7;82.2;99100;;;;
2023/03/02 22:09:43;;;;;;;32;19.8;;;;;;;-0.8;82.5;99100;;;;
2023/03/02 22:20:43;;;;;;;32;19.8;;;;;;;-1;82.6;99080;;;;
2023/03/02 22:31:44;;;;;;;32;19.8;;;;;;;-1.2;82.5;99080;;;;
2023/03/02 22:41:43;;;;;;;43.4;24;;;;;;;-1.3;83.1;99080;;;;
2023/03/02 22:52:44;;;;;;;43.4;24;;;;;;;-1.4;83.9;99070;;;;
2023/03/02 23:02:43;;;;;;;43.4;24;;;;;;;-1.6;83.8;99060;;;;
2023/03/02 23:13:43;;;;;;;37.1;22.3;;;;;;;-1.7;83.9;99060;;;;
2023/03/02 23:24:43;;;;;;;37.1;22.3;;;;;;;-1.9;83.9;99050;;;;
2023/03/02 23:35:43;;;;;;;37.1;22.3;;;;;;;-2.1;84.1;99050;;;;
2023/03/02 23:45:43;;;;;;;69.5;42.3;;;;;;;-2.2;84.3;99030;;;;
2023/03/02 23:55:43;;;;;;;69.5;42.3;;;;;;;-2.3;85;99030;;;;
